sensor_id;sensor_type;location;lat;lon;timestamp;P1;durP1;ratioP1;P2;durP2;ratioP2
13975;SDS011;7062;49.792;9.946;2022-10-16T00:01:08;1.13;;;0.70;;
13975;SDS011;7062;49.792;9.946;2022-10-16T00:03:36;3.97;;;0.80;;
13975;SDS011;7062;49.792;9.946;2022-10-16T00:06:06;0.67;;;0.67;;
13975;SDS011;7062;49.792;9.946;2022-10-16T00:08:33;0.80;;;0.70;;
13975;SDS011;7062;49.792;9.946;2022-10-16T00:11:03;1.57;;;0.70;;
13975;SDS011;7062;49.792;9.946;2022-10-16T00:13:33;1.60;;;0.70;;
13975;SDS011;7062;49.792;9.946;2022-10-16T00:16:00;3.20;;;0.77;;
13975;SDS011;7062;49.792;9.946;2022-10-16T00:18:26;2.00;;;0.67;;
13975;SDS011;7062;49.792;9.946;2022-10-16T00:20:52;1.97;;;0.70;;
13975;SDS011;7062;49.792;9.946;2022-10-16T00:23:19;3.83;;;0.87;;
13975;SDS011;7062;49.792;9.946;2022-10-16T00:25:53;1.70;;;0.73;;
13975;SDS011;7062;49.792;9.946;2022-10-16T00:28:20;2.33;;;0.70;;
13975;SDS011;7062;49.792;9.946;2022-10-16T00:30:46;1.70;;;0.80;;
13975;SDS011;7062;49.792;9.946;2022-10-16T00:33:12;2.03;;;0.70;;
13975;SDS011;7062;49.792;9.946;2022-10-16T00:35:37;0.87;;;0.87;;
13975;SDS011;7062;49.792;9.946;2022-10-16T00:38:03;0.83;;;0.83;;
13975;SDS011;7062;49.792;9.946;2022-10-16T00:40:28;0.73;;;0.67;;
13975;SDS011;7062;49.792;9.946;2022-10-16T00:42:54;1.70;;;0.70;;
13975;SDS011;7062;49.792;9.946;2022-10-16T00:45:20;1.20;;;0.90;;
13975;SDS011;7062;49.792;9.946;2022-10-16T00:47:45;2.33;;;0.80;;
13975;SDS011;7062;49.792;9.946;2022-10-16T00:52:55;2.23;;;1.00;;
13975;SDS011;7062;49.792;9.946;2022-10-16T00:55:22;2.07;;;1.13;;
13975;SDS011;7062;49.792;9.946;2022-10-16T00:57:48;1.67;;;0.80;;
13975;SDS011;7062;49.792;9.946;2022-10-16T01:00:18;1.63;;;0.93;;
13975;SDS011;7062;49.792;9.946;2022-10-16T01:02:57;1.77;;;1.00;;
13975;SDS011;7062;49.792;9.946;2022-10-16T01:05:26;1.87;;;0.87;;
13975;SDS011;7062;49.792;9.946;2022-10-16T01:08:13;0.80;;;0.77;;
13975;SDS011;7062;49.792;9.946;2022-10-16T01:13:21;2.07;;;0.80;;
13975;SDS011;7062;49.792;9.946;2022-10-16T01:16:13;2.07;;;0.50;;
13975;SDS011;7062;49.792;9.946;2022-10-16T01:18:47;4.40;;;0.93;;
13975;SDS011;7062;49.792;9.946;2022-10-16T01:21:26;1.87;;;0.87;;
13975;SDS011;7062;49.792;9.946;2022-10-16T01:29:54;1.93;;;0.90;;
13975;SDS011;7062;49.792;9.946;2022-10-16T01:35:05;4.10;;;1.23;;
13975;SDS011;7062;49.792;9.946;2022-10-16T01:37:44;2.93;;;0.80;;
13975;SDS011;7062;49.792;9.946;2022-10-16T01:40:34;2.00;;;0.93;;
13975;SDS011;7062;49.792;9.946;2022-10-16T01:43:04;1.77;;;1.37;;
13975;SDS011;7062;49.792;9.946;2022-10-16T01:45:37;1.23;;;0.90;;
13975;SDS011;7062;49.792;9.946;2022-10-16T01:48:04;2.53;;;0.80;;
13975;SDS011;7062;49.792;9.946;2022-10-16T01:50:33;1.23;;;0.87;;
13975;SDS011;7062;49.792;9.946;2022-10-16T01:53:04;4.50;;;1.00;;
13975;SDS011;7062;49.792;9.946;2022-10-16T01:55:32;0.90;;;0.80;;
13975;SDS011;7062;49.792;9.946;2022-10-16T01:58:04;3.43;;;0.80;;
13975;SDS011;7062;49.792;9.946;2022-10-16T02:00:32;2.10;;;0.70;;
13975;SDS011;7062;49.792;9.946;2022-10-16T02:02:58;3.00;;;1.43;;
13975;SDS011;7062;49.792;9.946;2022-10-16T02:05:28;1.30;;;0.80;;
13975;SDS011;7062;49.792;9.946;2022-10-16T02:08:16;2.27;;;0.87;;
13975;SDS011;7062;49.792;9.946;2022-10-16T02:10:41;1.83;;;0.90;;
13975;SDS011;7062;49.792;9.946;2022-10-16T02:13:12;1.07;;;0.80;;
13975;SDS011;7062;49.792;9.946;2022-10-16T02:15:48;2.63;;;0.70;;
13975;SDS011;7062;49.792;9.946;2022-10-16T02:18:14;1.10;;;0.80;;
13975;SDS011;7062;49.792;9.946;2022-10-16T02:20:44;0.80;;;0.80;;
13975;SDS011;7062;49.792;9.946;2022-10-16T02:23:19;0.60;;;0.60;;
13975;SDS011;7062;49.792;9.946;2022-10-16T02:25:54;2.83;;;0.80;;
13975;SDS011;7062;49.792;9.946;2022-10-16T02:28:25;1.73;;;0.80;;
13975;SDS011;7062;49.792;9.946;2022-10-16T02:30:56;1.50;;;0.70;;
13975;SDS011;7062;49.792;9.946;2022-10-16T02:33:26;1.13;;;1.03;;
13975;SDS011;7062;49.792;9.946;2022-10-16T02:35:55;1.50;;;0.80;;
13975;SDS011;7062;49.792;9.946;2022-10-16T02:38:23;0.73;;;0.70;;
13975;SDS011;7062;49.792;9.946;2022-10-16T02:40:50;2.93;;;0.70;;
13975;SDS011;7062;49.792;9.946;2022-10-16T02:43:16;0.73;;;0.73;;
13975;SDS011;7062;49.792;9.946;2022-10-16T02:45:42;3.50;;;0.90;;
13975;SDS011;7062;49.792;9.946;2022-10-16T02:48:08;2.73;;;0.90;;
13975;SDS011;7062;49.792;9.946;2022-10-16T02:50:33;0.97;;;0.83;;
13975;SDS011;7062;49.792;9.946;2022-10-16T02:52:59;2.07;;;0.97;;
13975;SDS011;7062;49.792;9.946;2022-10-16T02:55:25;1.47;;;1.00;;
13975;SDS011;7062;49.792;9.946;2022-10-16T02:57:52;1.87;;;1.53;;
13975;SDS011;7062;49.792;9.946;2022-10-16T03:00:19;0.90;;;0.70;;
13975;SDS011;7062;49.792;9.946;2022-10-16T03:02:45;1.53;;;0.90;;
13975;SDS011;7062;49.792;9.946;2022-10-16T03:05:11;2.23;;;0.73;;
13975;SDS011;7062;49.792;9.946;2022-10-16T03:07:37;1.57;;;0.83;;
13975;SDS011;7062;49.792;9.946;2022-10-16T03:10:03;0.93;;;0.80;;
13975;SDS011;7062;49.792;9.946;2022-10-16T03:12:29;2.13;;;1.00;;
13975;SDS011;7062;49.792;9.946;2022-10-16T03:14:56;3.00;;;1.03;;
13975;SDS011;7062;49.792;9.946;2022-10-16T03:17:22;3.30;;;1.10;;
13975;SDS011;7062;49.792;9.946;2022-10-16T03:19:48;1.63;;;0.90;;
13975;SDS011;7062;49.792;9.946;2022-10-16T03:22:14;1.30;;;1.00;;
13975;SDS011;7062;49.792;9.946;2022-10-16T03:24:40;4.40;;;1.07;;
13975;SDS011;7062;49.792;9.946;2022-10-16T03:27:05;1.00;;;0.90;;
13975;SDS011;7062;49.792;9.946;2022-10-16T03:29:31;3.53;;;0.90;;
13975;SDS011;7062;49.792;9.946;2022-10-16T03:31:57;3.03;;;1.03;;
13975;SDS011;7062;49.792;9.946;2022-10-16T03:34:24;2.80;;;0.80;;
13975;SDS011;7062;49.792;9.946;2022-10-16T03:36:50;3.70;;;1.23;;
13975;SDS011;7062;49.792;9.946;2022-10-16T03:39:16;1.37;;;0.70;;
13975;SDS011;7062;49.792;9.946;2022-10-16T03:41:42;4.50;;;1.10;;
13975;SDS011;7062;49.792;9.946;2022-10-16T03:44:07;1.33;;;1.20;;
13975;SDS011;7062;49.792;9.946;2022-10-16T03:46:33;2.73;;;0.97;;
13975;SDS011;7062;49.792;9.946;2022-10-16T03:48:58;5.40;;;1.30;;
13975;SDS011;7062;49.792;9.946;2022-10-16T03:51:24;1.37;;;1.10;;
13975;SDS011;7062;49.792;9.946;2022-10-16T03:53:50;5.83;;;1.20;;
13975;SDS011;7062;49.792;9.946;2022-10-16T03:56:15;1.37;;;0.90;;
13975;SDS011;7062;49.792;9.946;2022-10-16T03:58:41;6.53;;;1.10;;
13975;SDS011;7062;49.792;9.946;2022-10-16T04:01:07;5.70;;;1.63;;
13975;SDS011;7062;49.792;9.946;2022-10-16T04:03:32;1.60;;;1.00;;
13975;SDS011;7062;49.792;9.946;2022-10-16T04:05:58;0.80;;;0.80;;
13975;SDS011;7062;49.792;9.946;2022-10-16T04:08:24;1.67;;;0.80;;
13975;SDS011;7062;49.792;9.946;2022-10-16T04:10:49;1.90;;;1.00;;
13975;SDS011;7062;49.792;9.946;2022-10-16T04:13:15;2.20;;;0.90;;
13975;SDS011;7062;49.792;9.946;2022-10-16T04:15:41;1.23;;;0.80;;
13975;SDS011;7062;49.792;9.946;2022-10-16T04:18:07;2.60;;;0.80;;
13975;SDS011;7062;49.792;9.946;2022-10-16T04:20:33;0.80;;;0.70;;
13975;SDS011;7062;49.792;9.946;2022-10-16T04:22:58;1.00;;;1.00;;
13975;SDS011;7062;49.792;9.946;2022-10-16T04:25:24;2.47;;;1.00;;
13975;SDS011;7062;49.792;9.946;2022-10-16T04:27:52;2.03;;;1.00;;
13975;SDS011;7062;49.792;9.946;2022-10-16T04:30:18;1.10;;;1.00;;
13975;SDS011;7062;49.792;9.946;2022-10-16T04:32:47;5.73;;;1.10;;
13975;SDS011;7062;49.792;9.946;2022-10-16T04:35:17;2.10;;;0.70;;
13975;SDS011;7062;49.792;9.946;2022-10-16T04:37:43;2.80;;;0.90;;
13975;SDS011;7062;49.792;9.946;2022-10-16T04:40:09;2.43;;;1.00;;
13975;SDS011;7062;49.792;9.946;2022-10-16T04:42:35;1.13;;;0.80;;
13975;SDS011;7062;49.792;9.946;2022-10-16T04:45:00;5.70;;;1.03;;
13975;SDS011;7062;49.792;9.946;2022-10-16T04:47:26;1.23;;;0.93;;
13975;SDS011;7062;49.792;9.946;2022-10-16T04:49:51;1.67;;;0.77;;
13975;SDS011;7062;49.792;9.946;2022-10-16T04:52:17;1.57;;;0.63;;
13975;SDS011;7062;49.792;9.946;2022-10-16T04:54:44;2.07;;;0.90;;
13975;SDS011;7062;49.792;9.946;2022-10-16T04:57:10;2.93;;;0.80;;
13975;SDS011;7062;49.792;9.946;2022-10-16T04:59:36;2.10;;;0.70;;
13975;SDS011;7062;49.792;9.946;2022-10-16T05:02:02;2.37;;;1.37;;
13975;SDS011;7062;49.792;9.946;2022-10-16T05:04:27;0.93;;;0.60;;
13975;SDS011;7062;49.792;9.946;2022-10-16T05:06:53;1.90;;;0.60;;
13975;SDS011;7062;49.792;9.946;2022-10-16T05:09:19;4.40;;;0.80;;
13975;SDS011;7062;49.792;9.946;2022-10-16T05:11:45;1.70;;;0.70;;
13975;SDS011;7062;49.792;9.946;2022-10-16T05:14:10;1.60;;;1.00;;
13975;SDS011;7062;49.792;9.946;2022-10-16T05:16:36;1.00;;;0.70;;
13975;SDS011;7062;49.792;9.946;2022-10-16T05:19:02;0.60;;;0.60;;
13975;SDS011;7062;49.792;9.946;2022-10-16T05:21:27;0.67;;;0.60;;
13975;SDS011;7062;49.792;9.946;2022-10-16T05:23:53;1.57;;;0.83;;
13975;SDS011;7062;49.792;9.946;2022-10-16T05:26:20;0.93;;;0.70;;
13975;SDS011;7062;49.792;9.946;2022-10-16T05:28:45;2.40;;;0.90;;
13975;SDS011;7062;49.792;9.946;2022-10-16T05:31:11;0.60;;;0.60;;
13975;SDS011;7062;49.792;9.946;2022-10-16T05:33:37;3.33;;;0.80;;
13975;SDS011;7062;49.792;9.946;2022-10-16T05:36:03;3.80;;;0.90;;
13975;SDS011;7062;49.792;9.946;2022-10-16T05:38:32;3.10;;;0.83;;
13975;SDS011;7062;49.792;9.946;2022-10-16T05:40:57;0.93;;;0.77;;
13975;SDS011;7062;49.792;9.946;2022-10-16T05:43:23;4.43;;;0.70;;
13975;SDS011;7062;49.792;9.946;2022-10-16T05:48:21;1.37;;;0.83;;
13975;SDS011;7062;49.792;9.946;2022-10-16T05:50:47;1.23;;;0.70;;
13975;SDS011;7062;49.792;9.946;2022-10-16T05:53:13;2.03;;;0.77;;
13975;SDS011;7062;49.792;9.946;2022-10-16T05:55:38;3.67;;;0.77;;
13975;SDS011;7062;49.792;9.946;2022-10-16T05:58:04;2.90;;;0.70;;
13975;SDS011;7062;49.792;9.946;2022-10-16T06:00:29;1.30;;;0.93;;
13975;SDS011;7062;49.792;9.946;2022-10-16T06:02:55;1.67;;;0.73;;
13975;SDS011;7062;49.792;9.946;2022-10-16T06:05:21;3.47;;;0.70;;
13975;SDS011;7062;49.792;9.946;2022-10-16T06:07:46;1.87;;;0.80;;
13975;SDS011;7062;49.792;9.946;2022-10-16T06:10:12;1.00;;;0.80;;
13975;SDS011;7062;49.792;9.946;2022-10-16T06:12:37;0.97;;;0.70;;
13975;SDS011;7062;49.792;9.946;2022-10-16T06:15:03;2.97;;;1.00;;
13975;SDS011;7062;49.792;9.946;2022-10-16T06:17:29;2.93;;;1.10;;
13975;SDS011;7062;49.792;9.946;2022-10-16T06:19:55;0.97;;;0.70;;
13975;SDS011;7062;49.792;9.946;2022-10-16T06:22:20;2.33;;;0.90;;
13975;SDS011;7062;49.792;9.946;2022-10-16T06:24:46;2.43;;;0.70;;
13975;SDS011;7062;49.792;9.946;2022-10-16T06:27:12;1.27;;;0.70;;
13975;SDS011;7062;49.792;9.946;2022-10-16T06:29:38;3.67;;;0.90;;
13975;SDS011;7062;49.792;9.946;2022-10-16T06:32:03;1.73;;;1.30;;
13975;SDS011;7062;49.792;9.946;2022-10-16T06:34:29;4.17;;;0.90;;
13975;SDS011;7062;49.792;9.946;2022-10-16T06:36:55;2.00;;;0.90;;
13975;SDS011;7062;49.792;9.946;2022-10-16T06:39:20;1.70;;;1.07;;
13975;SDS011;7062;49.792;9.946;2022-10-16T06:41:46;2.33;;;0.73;;
13975;SDS011;7062;49.792;9.946;2022-10-16T06:44:12;1.97;;;1.03;;
13975;SDS011;7062;49.792;9.946;2022-10-16T06:46:37;0.80;;;0.73;;
13975;SDS011;7062;49.792;9.946;2022-10-16T06:49:03;0.93;;;0.83;;
13975;SDS011;7062;49.792;9.946;2022-10-16T06:51:29;3.27;;;1.20;;
13975;SDS011;7062;49.792;9.946;2022-10-16T06:53:56;0.77;;;0.77;;
13975;SDS011;7062;49.792;9.946;2022-10-16T06:56:23;1.70;;;0.97;;
13975;SDS011;7062;49.792;9.946;2022-10-16T06:58:51;1.80;;;1.10;;
13975;SDS011;7062;49.792;9.946;2022-10-16T07:01:21;2.40;;;0.90;;
13975;SDS011;7062;49.792;9.946;2022-10-16T07:03:48;2.53;;;1.10;;
13975;SDS011;7062;49.792;9.946;2022-10-16T07:06:15;3.60;;;1.17;;
13975;SDS011;7062;49.792;9.946;2022-10-16T07:08:43;2.80;;;0.93;;
13975;SDS011;7062;49.792;9.946;2022-10-16T07:11:11;1.53;;;1.13;;
13975;SDS011;7062;49.792;9.946;2022-10-16T07:13:39;6.20;;;1.10;;
13975;SDS011;7062;49.792;9.946;2022-10-16T07:16:07;2.17;;;1.20;;
13975;SDS011;7062;49.792;9.946;2022-10-16T07:18:34;1.10;;;1.00;;
13975;SDS011;7062;49.792;9.946;2022-10-16T07:23:34;1.73;;;1.10;;
13975;SDS011;7062;49.792;9.946;2022-10-16T07:26:00;2.43;;;0.90;;
13975;SDS011;7062;49.792;9.946;2022-10-16T07:28:26;3.30;;;1.00;;
13975;SDS011;7062;49.792;9.946;2022-10-16T07:30:52;2.77;;;1.07;;
13975;SDS011;7062;49.792;9.946;2022-10-16T07:33:18;2.17;;;0.80;;
13975;SDS011;7062;49.792;9.946;2022-10-16T07:35:50;3.17;;;1.60;;
13975;SDS011;7062;49.792;9.946;2022-10-16T07:38:17;6.80;;;1.33;;
13975;SDS011;7062;49.792;9.946;2022-10-16T07:40:43;2.43;;;1.23;;
13975;SDS011;7062;49.792;9.946;2022-10-16T07:43:09;1.60;;;1.30;;
13975;SDS011;7062;49.792;9.946;2022-10-16T07:45:35;3.23;;;1.40;;
13975;SDS011;7062;49.792;9.946;2022-10-16T07:48:01;2.80;;;1.00;;
13975;SDS011;7062;49.792;9.946;2022-10-16T07:50:26;4.87;;;1.33;;
13975;SDS011;7062;49.792;9.946;2022-10-16T07:52:52;3.60;;;1.60;;
13975;SDS011;7062;49.792;9.946;2022-10-16T07:55:18;2.10;;;1.37;;
13975;SDS011;7062;49.792;9.946;2022-10-16T07:57:43;3.30;;;2.63;;
13975;SDS011;7062;49.792;9.946;2022-10-16T08:00:09;5.87;;;1.87;;
13975;SDS011;7062;49.792;9.946;2022-10-16T08:02:41;2.63;;;1.10;;
13975;SDS011;7062;49.792;9.946;2022-10-16T08:05:07;5.77;;;2.00;;
13975;SDS011;7062;49.792;9.946;2022-10-16T08:07:33;2.53;;;1.90;;
13975;SDS011;7062;49.792;9.946;2022-10-16T08:09:59;4.47;;;1.40;;
13975;SDS011;7062;49.792;9.946;2022-10-16T08:12:25;7.43;;;1.87;;
13975;SDS011;7062;49.792;9.946;2022-10-16T08:14:51;3.10;;;1.57;;
13975;SDS011;7062;49.792;9.946;2022-10-16T08:17:16;2.53;;;1.50;;
13975;SDS011;7062;49.792;9.946;2022-10-16T08:19:45;2.30;;;1.57;;
13975;SDS011;7062;49.792;9.946;2022-10-16T08:22:12;3.10;;;1.13;;
13975;SDS011;7062;49.792;9.946;2022-10-16T08:24:38;2.67;;;1.37;;
13975;SDS011;7062;49.792;9.946;2022-10-16T08:27:05;4.80;;;1.90;;
13975;SDS011;7062;49.792;9.946;2022-10-16T08:29:32;3.37;;;1.50;;
13975;SDS011;7062;49.792;9.946;2022-10-16T08:31:58;3.00;;;1.40;;
13975;SDS011;7062;49.792;9.946;2022-10-16T08:34:25;2.57;;;1.37;;
13975;SDS011;7062;49.792;9.946;2022-10-16T08:36:54;2.60;;;1.70;;
13975;SDS011;7062;49.792;9.946;2022-10-16T08:39:20;3.30;;;1.33;;
13975;SDS011;7062;49.792;9.946;2022-10-16T08:47:24;3.27;;;1.43;;
13975;SDS011;7062;49.792;9.946;2022-10-16T08:50:09;3.77;;;1.53;;
13975;SDS011;7062;49.792;9.946;2022-10-16T08:52:38;2.43;;;1.93;;
13975;SDS011;7062;49.792;9.946;2022-10-16T08:55:06;4.40;;;1.97;;
13975;SDS011;7062;49.792;9.946;2022-10-16T08:57:34;3.50;;;1.53;;
13975;SDS011;7062;49.792;9.946;2022-10-16T09:00:00;2.83;;;1.40;;
13975;SDS011;7062;49.792;9.946;2022-10-16T09:02:37;3.67;;;1.50;;
13975;SDS011;7062;49.792;9.946;2022-10-16T09:08:09;1.40;;;1.00;;
13975;SDS011;7062;49.792;9.946;2022-10-16T09:11:14;2.10;;;0.90;;
13975;SDS011;7062;49.792;9.946;2022-10-16T09:16:41;1.30;;;1.20;;
13975;SDS011;7062;49.792;9.946;2022-10-16T09:19:22;1.53;;;0.83;;
13975;SDS011;7062;49.792;9.946;2022-10-16T09:21:54;2.90;;;1.20;;
13975;SDS011;7062;49.792;9.946;2022-10-16T09:24:21;2.10;;;1.10;;
13975;SDS011;7062;49.792;9.946;2022-10-16T09:26:50;2.40;;;1.37;;
13975;SDS011;7062;49.792;9.946;2022-10-16T09:29:16;2.83;;;1.00;;
13975;SDS011;7062;49.792;9.946;2022-10-16T09:31:46;1.73;;;0.90;;
13975;SDS011;7062;49.792;9.946;2022-10-16T09:34:30;1.50;;;1.00;;
13975;SDS011;7062;49.792;9.946;2022-10-16T09:37:00;2.30;;;0.73;;
13975;SDS011;7062;49.792;9.946;2022-10-16T09:39:30;2.63;;;1.10;;
13975;SDS011;7062;49.792;9.946;2022-10-16T09:42:11;2.73;;;1.10;;
13975;SDS011;7062;49.792;9.946;2022-10-16T09:44:41;1.00;;;0.77;;
13975;SDS011;7062;49.792;9.946;2022-10-16T09:47:14;2.60;;;1.40;;
13975;SDS011;7062;49.792;9.946;2022-10-16T09:49:52;2.63;;;1.03;;
13975;SDS011;7062;49.792;9.946;2022-10-16T09:52:31;2.20;;;0.73;;
13975;SDS011;7062;49.792;9.946;2022-10-16T09:54:58;4.80;;;1.20;;
13975;SDS011;7062;49.792;9.946;2022-10-16T09:57:26;3.23;;;1.47;;
13975;SDS011;7062;49.792;9.946;2022-10-16T09:59:53;3.90;;;1.10;;
13975;SDS011;7062;49.792;9.946;2022-10-16T10:02:27;2.73;;;1.00;;
13975;SDS011;7062;49.792;9.946;2022-10-16T10:04:56;2.53;;;1.40;;
13975;SDS011;7062;49.792;9.946;2022-10-16T10:07:26;1.67;;;0.90;;
13975;SDS011;7062;49.792;9.946;2022-10-16T10:09:58;0.90;;;0.80;;
13975;SDS011;7062;49.792;9.946;2022-10-16T10:12:24;1.67;;;1.00;;
13975;SDS011;7062;49.792;9.946;2022-10-16T10:14:55;1.50;;;0.93;;
13975;SDS011;7062;49.792;9.946;2022-10-16T10:17:23;2.53;;;0.90;;
13975;SDS011;7062;49.792;9.946;2022-10-16T10:36:36;3.57;;;2.03;;
13975;SDS011;7062;49.792;9.946;2022-10-16T10:39:08;5.27;;;1.70;;
13975;SDS011;7062;49.792;9.946;2022-10-16T10:50:32;3.03;;;1.10;;
13975;SDS011;7062;49.792;9.946;2022-10-16T11:01:11;2.67;;;1.60;;
13975;SDS011;7062;49.792;9.946;2022-10-16T11:11:59;1.80;;;0.70;;
13975;SDS011;7062;49.792;9.946;2022-10-16T11:15:38;1.70;;;0.80;;
13975;SDS011;7062;49.792;9.946;2022-10-16T11:17:48;0.87;;;0.60;;
13975;SDS011;7062;49.792;9.946;2022-10-16T11:23:33;1.43;;;0.50;;
13975;SDS011;7062;49.792;9.946;2022-10-16T11:26:23;1.60;;;0.60;;
13975;SDS011;7062;49.792;9.946;2022-10-16T11:28:54;1.07;;;0.60;;
13975;SDS011;7062;49.792;9.946;2022-10-16T11:31:37;3.23;;;1.10;;
13975;SDS011;7062;49.792;9.946;2022-10-16T11:34:10;0.93;;;0.63;;
13975;SDS011;7062;49.792;9.946;2022-10-16T11:37:05;1.10;;;1.00;;
13975;SDS011;7062;49.792;9.946;2022-10-16T11:39:37;2.60;;;1.10;;
13975;SDS011;7062;49.792;9.946;2022-10-16T11:55:31;0.93;;;0.67;;
13975;SDS011;7062;49.792;9.946;2022-10-16T12:01:01;2.37;;;0.90;;
13975;SDS011;7062;49.792;9.946;2022-10-16T12:06:25;3.20;;;0.80;;
13975;SDS011;7062;49.792;9.946;2022-10-16T12:09:00;2.73;;;0.80;;
13975;SDS011;7062;49.792;9.946;2022-10-16T12:16:56;3.03;;;0.70;;
13975;SDS011;7062;49.792;9.946;2022-10-16T12:19:30;2.63;;;0.77;;
13975;SDS011;7062;49.792;9.946;2022-10-16T12:21:57;1.17;;;0.90;;
13975;SDS011;7062;49.792;9.946;2022-10-16T12:27:06;1.57;;;0.80;;
13975;SDS011;7062;49.792;9.946;2022-10-16T12:30:03;2.23;;;0.80;;
13975;SDS011;7062;49.792;9.946;2022-10-16T12:32:35;1.60;;;0.77;;
13975;SDS011;7062;49.792;9.946;2022-10-16T12:35:04;3.30;;;0.77;;
13975;SDS011;7062;49.792;9.946;2022-10-16T12:37:41;3.20;;;1.50;;
13975;SDS011;7062;49.792;9.946;2022-10-16T12:40:23;1.00;;;0.90;;
13975;SDS011;7062;49.792;9.946;2022-10-16T12:42:56;1.33;;;1.23;;
13975;SDS011;7062;49.792;9.946;2022-10-16T12:47:56;2.30;;;1.00;;
13975;SDS011;7062;49.792;9.946;2022-10-16T12:50:33;2.63;;;1.10;;
13975;SDS011;7062;49.792;9.946;2022-10-16T12:53:03;1.53;;;0.90;;
13975;SDS011;7062;49.792;9.946;2022-10-16T12:55:52;2.77;;;0.93;;
13975;SDS011;7062;49.792;9.946;2022-10-16T13:12:08;4.00;;;3.63;;
13975;SDS011;7062;49.792;9.946;2022-10-16T13:30:17;2.17;;;0.80;;
13975;SDS011;7062;49.792;9.946;2022-10-16T13:33:10;2.20;;;0.67;;
13975;SDS011;7062;49.792;9.946;2022-10-16T13:35:54;2.00;;;0.70;;
13975;SDS011;7062;49.792;9.946;2022-10-16T13:38:28;1.83;;;0.63;;
13975;SDS011;7062;49.792;9.946;2022-10-16T13:41:00;1.00;;;0.80;;
13975;SDS011;7062;49.792;9.946;2022-10-16T13:48:29;2.13;;;1.07;;
13975;SDS011;7062;49.792;9.946;2022-10-16T13:50:59;5.07;;;1.00;;
13975;SDS011;7062;49.792;9.946;2022-10-16T13:53:31;0.70;;;0.70;;
13975;SDS011;7062;49.792;9.946;2022-10-16T13:55:58;1.53;;;0.90;;
13975;SDS011;7062;49.792;9.946;2022-10-16T13:58:25;1.00;;;0.90;;
13975;SDS011;7062;49.792;9.946;2022-10-16T14:00:58;1.93;;;0.87;;
13975;SDS011;7062;49.792;9.946;2022-10-16T14:03:39;1.00;;;0.60;;
13975;SDS011;7062;49.792;9.946;2022-10-16T14:06:06;1.90;;;0.70;;
13975;SDS011;7062;49.792;9.946;2022-10-16T14:08:53;2.33;;;0.60;;
13975;SDS011;7062;49.792;9.946;2022-10-16T14:11:25;2.97;;;1.00;;
13975;SDS011;7062;49.792;9.946;2022-10-16T14:13:51;3.00;;;0.90;;
13975;SDS011;7062;49.792;9.946;2022-10-16T14:16:27;0.90;;;0.70;;
13975;SDS011;7062;49.792;9.946;2022-10-16T14:21:22;1.80;;;0.70;;
13975;SDS011;7062;49.792;9.946;2022-10-16T14:23:49;1.33;;;0.80;;
13975;SDS011;7062;49.792;9.946;2022-10-16T14:26:16;1.70;;;0.87;;
13975;SDS011;7062;49.792;9.946;2022-10-16T14:28:44;0.50;;;0.50;;
13975;SDS011;7062;49.792;9.946;2022-10-16T14:33:48;1.40;;;0.70;;
13975;SDS011;7062;49.792;9.946;2022-10-16T14:36:14;4.70;;;1.10;;
13975;SDS011;7062;49.792;9.946;2022-10-16T14:39:04;1.23;;;0.80;;
13975;SDS011;7062;49.792;9.946;2022-10-16T14:41:46;2.23;;;0.80;;
13975;SDS011;7062;49.792;9.946;2022-10-16T14:44:13;4.00;;;0.80;;
13975;SDS011;7062;49.792;9.946;2022-10-16T14:46:41;1.67;;;0.80;;
13975;SDS011;7062;49.792;9.946;2022-10-16T14:51:36;3.17;;;0.97;;
13975;SDS011;7062;49.792;9.946;2022-10-16T14:54:03;2.60;;;0.80;;
13975;SDS011;7062;49.792;9.946;2022-10-16T14:57:15;1.80;;;0.90;;
13975;SDS011;7062;49.792;9.946;2022-10-16T14:59:25;1.63;;;0.70;;
13975;SDS011;7062;49.792;9.946;2022-10-16T15:02:16;5.23;;;1.00;;
13975;SDS011;7062;49.792;9.946;2022-10-16T15:04:57;1.50;;;1.13;;
13975;SDS011;7062;49.792;9.946;2022-10-16T15:07:27;4.17;;;0.90;;
13975;SDS011;7062;49.792;9.946;2022-10-16T15:09:52;1.93;;;0.90;;
13975;SDS011;7062;49.792;9.946;2022-10-16T15:12:18;1.60;;;1.33;;
13975;SDS011;7062;49.792;9.946;2022-10-16T15:14:44;0.80;;;0.80;;
13975;SDS011;7062;49.792;9.946;2022-10-16T15:17:10;2.30;;;1.50;;
13975;SDS011;7062;49.792;9.946;2022-10-16T15:19:36;3.57;;;1.43;;
13975;SDS011;7062;49.792;9.946;2022-10-16T15:22:01;1.00;;;0.87;;
13975;SDS011;7062;49.792;9.946;2022-10-16T15:24:27;1.47;;;1.27;;
13975;SDS011;7062;49.792;9.946;2022-10-16T15:26:53;2.20;;;1.23;;
13975;SDS011;7062;49.792;9.946;2022-10-16T15:29:18;1.63;;;1.07;;
13975;SDS011;7062;49.792;9.946;2022-10-16T15:31:44;2.33;;;1.40;;
13975;SDS011;7062;49.792;9.946;2022-10-16T15:34:12;5.07;;;1.60;;
13975;SDS011;7062;49.792;9.946;2022-10-16T15:36:38;3.77;;;1.20;;
13975;SDS011;7062;49.792;9.946;2022-10-16T15:39:05;3.50;;;1.50;;
13975;SDS011;7062;49.792;9.946;2022-10-16T15:41:38;3.03;;;1.50;;
13975;SDS011;7062;49.792;9.946;2022-10-16T15:44:03;3.63;;;1.50;;
13975;SDS011;7062;49.792;9.946;2022-10-16T15:46:29;10.50;;;1.70;;
13975;SDS011;7062;49.792;9.946;2022-10-16T15:48:56;5.63;;;1.57;;
13975;SDS011;7062;49.792;9.946;2022-10-16T15:51:23;3.17;;;1.93;;
13975;SDS011;7062;49.792;9.946;2022-10-16T15:53:49;3.60;;;1.73;;
13975;SDS011;7062;49.792;9.946;2022-10-16T15:56:16;2.27;;;1.40;;
13975;SDS011;7062;49.792;9.946;2022-10-16T15:58:42;4.27;;;1.60;;
13975;SDS011;7062;49.792;9.946;2022-10-16T16:01:08;2.53;;;1.47;;
13975;SDS011;7062;49.792;9.946;2022-10-16T16:03:34;2.67;;;1.23;;
13975;SDS011;7062;49.792;9.946;2022-10-16T16:06:05;4.07;;;1.60;;
13975;SDS011;7062;49.792;9.946;2022-10-16T16:08:33;3.10;;;1.33;;
13975;SDS011;7062;49.792;9.946;2022-10-16T16:10:59;2.53;;;1.40;;
13975;SDS011;7062;49.792;9.946;2022-10-16T16:13:27;5.47;;;1.50;;
13975;SDS011;7062;49.792;9.946;2022-10-16T16:15:52;2.63;;;1.57;;
13975;SDS011;7062;49.792;9.946;2022-10-16T16:18:18;2.37;;;1.50;;
13975;SDS011;7062;49.792;9.946;2022-10-16T16:20:44;2.27;;;1.40;;
13975;SDS011;7062;49.792;9.946;2022-10-16T16:23:09;3.03;;;1.70;;
13975;SDS011;7062;49.792;9.946;2022-10-16T16:25:35;2.70;;;1.50;;
13975;SDS011;7062;49.792;9.946;2022-10-16T16:28:02;2.43;;;1.83;;
13975;SDS011;7062;49.792;9.946;2022-10-16T16:30:28;2.30;;;2.10;;
13975;SDS011;7062;49.792;9.946;2022-10-16T16:32:53;10.53;;;2.17;;
13975;SDS011;7062;49.792;9.946;2022-10-16T16:35:19;3.23;;;1.57;;
13975;SDS011;7062;49.792;9.946;2022-10-16T16:37:46;3.27;;;2.77;;
13975;SDS011;7062;49.792;9.946;2022-10-16T16:40:12;4.10;;;3.20;;
13975;SDS011;7062;49.792;9.946;2022-10-16T16:42:38;4.03;;;2.87;;
13975;SDS011;7062;49.792;9.946;2022-10-16T16:45:03;2.43;;;2.17;;
13975;SDS011;7062;49.792;9.946;2022-10-16T16:47:29;5.87;;;3.57;;
13975;SDS011;7062;49.792;9.946;2022-10-16T16:49:55;4.73;;;2.90;;
13975;SDS011;7062;49.792;9.946;2022-10-16T16:52:20;3.13;;;2.57;;
13975;SDS011;7062;49.792;9.946;2022-10-16T16:54:47;5.60;;;3.10;;
13975;SDS011;7062;49.792;9.946;2022-10-16T16:57:17;3.93;;;2.60;;
13975;SDS011;7062;49.792;9.946;2022-10-16T16:59:43;6.10;;;3.73;;
13975;SDS011;7062;49.792;9.946;2022-10-16T17:02:09;5.80;;;2.57;;
13975;SDS011;7062;49.792;9.946;2022-10-16T17:04:35;5.23;;;2.37;;
13975;SDS011;7062;49.792;9.946;2022-10-16T17:07:00;4.00;;;2.27;;
13975;SDS011;7062;49.792;9.946;2022-10-16T17:09:26;7.70;;;3.10;;
13975;SDS011;7062;49.792;9.946;2022-10-16T17:11:52;4.20;;;2.80;;
13975;SDS011;7062;49.792;9.946;2022-10-16T17:14:19;4.03;;;2.60;;
13975;SDS011;7062;49.792;9.946;2022-10-16T17:16:45;5.43;;;2.60;;
13975;SDS011;7062;49.792;9.946;2022-10-16T17:19:13;4.73;;;3.00;;
13975;SDS011;7062;49.792;9.946;2022-10-16T17:21:41;4.67;;;3.30;;
13975;SDS011;7062;49.792;9.946;2022-10-16T17:24:07;8.67;;;4.20;;
13975;SDS011;7062;49.792;9.946;2022-10-16T17:26:33;4.33;;;2.97;;
13975;SDS011;7062;49.792;9.946;2022-10-16T17:29:02;3.20;;;2.90;;
13975;SDS011;7062;49.792;9.946;2022-10-16T17:31:34;7.43;;;3.80;;
13975;SDS011;7062;49.792;9.946;2022-10-16T17:34:01;5.80;;;3.40;;
13975;SDS011;7062;49.792;9.946;2022-10-16T17:36:30;3.67;;;2.90;;
13975;SDS011;7062;49.792;9.946;2022-10-16T17:38:58;7.40;;;4.87;;